sensor_id;sensor_type;location;lat;lon;timestamp;pressure;altitude;pressure_sealevel;temperature;humidity
46724;BME280;32463;48.298;11.620;2023-02-19T00:01:24;96740.47;;;10.20;100.00
46724;BME280;32463;48.298;11.620;2023-02-19T00:03:56;96731.31;;;10.16;100.00
46724;BME280;32463;48.298;11.620;2023-02-19T00:06:24;96729.69;;;10.14;100.00
46724;BME280;32463;48.298;11.620;2023-02-19T00:08:50;96742.34;;;10.18;100.00
46724;BME280;32463;48.298;11.620;2023-02-19T00:11:20;96742.25;;;10.19;100.00
46724;BME280;32463;48.298;11.620;2023-02-19T00:13:49;96738.28;;;10.15;100.00
46724;BME280;32463;48.298;11.620;2023-02-19T00:16:27;96738.28;;;10.15;100.00
46724;BME280;32463;48.298;11.620;2023-02-19T00:18:55;96722.72;;;10.15;100.00
46724;BME280;32463;48.298;11.620;2023-02-19T00:21:22;96724.94;;;10.10;100.00
46724;BME280;32463;48.298;11.620;2023-02-19T00:23:50;96724.78;;;10.11;100.00
46724;BME280;32463;48.298;11.620;2023-02-19T00:26:17;96726.38;;;10.04;100.00
46724;BME280;32463;48.298;11.620;2023-02-19T00:28:44;96712.75;;;10.02;100.00
46724;BME280;32463;48.298;11.620;2023-02-19T00:31:15;96716.00;;;10.04;100.00
46724;BME280;32463;48.298;11.620;2023-02-19T00:33:42;96715.72;;;10.07;100.00
46724;BME280;32463;48.298;11.620;2023-02-19T00:36:09;96712.44;;;10.05;100.00
46724;BME280;32463;48.298;11.620;2023-02-19T00:38:37;96716.56;;;9.98;100.00
46724;BME280;32463;48.298;11.620;2023-02-19T00:41:05;96711.09;;;10.01;100.00
46724;BME280;32463;48.298;11.620;2023-02-19T00:46:14;96704.44;;;9.99;100.00
46724;BME280;32463;48.298;11.620;2023-02-19T00:48:41;96696.97;;;9.96;100.00
46724;BME280;32463;48.298;11.620;2023-02-19T00:51:07;96699.97;;;9.91;100.00
46724;BME280;32463;48.298;11.620;2023-02-19T00:53:33;96701.91;;;9.89;100.00
46724;BME280;32463;48.298;11.620;2023-02-19T00:56:00;96703.25;;;9.93;100.00
46724;BME280;32463;48.298;11.620;2023-02-19T00:58:26;96694.13;;;9.89;100.00
46724;BME280;32463;48.298;11.620;2023-02-19T01:00:53;96694.00;;;9.91;100.00
46724;BME280;32463;48.298;11.620;2023-02-19T01:03:19;96695.34;;;9.95;100.00
46724;BME280;32463;48.298;11.620;2023-02-19T01:05:48;96690.59;;;9.90;100.00
46724;BME280;32463;48.298;11.620;2023-02-19T01:08:15;96689.25;;;9.86;100.00
46724;BME280;32463;48.298;11.620;2023-02-19T01:10:42;96691.25;;;9.92;100.00
46724;BME280;32463;48.298;11.620;2023-02-19T01:13:08;96697.25;;;9.93;100.00
46724;BME280;32463;48.298;11.620;2023-02-19T01:15:35;96692.06;;;9.93;100.00
46724;BME280;32463;48.298;11.620;2023-02-19T01:18:02;96703.25;;;9.93;100.00
46724;BME280;32463;48.298;11.620;2023-02-19T01:20:29;96679.25;;;9.91;100.00
46724;BME280;32463;48.298;11.620;2023-02-19T01:22:56;96689.63;;;9.91;100.00
46724;BME280;32463;48.298;11.620;2023-02-19T01:25:22;96689.34;;;9.94;100.00
46724;BME280;32463;48.298;11.620;2023-02-19T01:27:49;96682.25;;;9.96;100.00
46724;BME280;32463;48.298;11.620;2023-02-19T01:30:15;96686.88;;;9.93;100.00
46724;BME280;32463;48.298;11.620;2023-02-19T01:32:42;96686.38;;;9.89;100.00
46724;BME280;32463;48.298;11.620;2023-02-19T01:35:08;96665.66;;;9.89;100.00
46724;BME280;32463;48.298;11.620;2023-02-19T01:37:35;96667.00;;;9.93;100.00
46724;BME280;32463;48.298;11.620;2023-02-19T01:40:01;96668.31;;;9.97;100.00
46724;BME280;32463;48.298;11.620;2023-02-19T01:42:28;96664.25;;;9.95;100.00
46724;BME280;32463;48.298;11.620;2023-02-19T01:45:23;96653.75;;;9.96;100.00
46724;BME280;32463;48.298;11.620;2023-02-19T01:47:55;96654.72;;;9.95;100.00
46724;BME280;32463;48.298;11.620;2023-02-19T01:50:23;96655.28;;;9.89;100.00
46724;BME280;32463;48.298;11.620;2023-02-19T01:52:52;96657.22;;;9.87;100.00
46724;BME280;32463;48.298;11.620;2023-02-19T01:55:19;96649.28;;;9.89;100.00
46724;BME280;32463;48.298;11.620;2023-02-19T01:57:47;96645.44;;;9.93;100.00
46724;BME280;32463;48.298;11.620;2023-02-19T02:00:17;96650.78;;;9.91;100.00
46724;BME280;32463;48.298;11.620;2023-02-19T02:02:48;96648.84;;;9.93;100.00
46724;BME280;32463;48.298;11.620;2023-02-19T02:05:24;96637.25;;;9.97;100.00
46724;BME280;32463;48.298;11.620;2023-02-19T02:07:55;96634.66;;;9.97;100.00
46724;BME280;32463;48.298;11.620;2023-02-19T02:10:40;96644.34;;;9.95;100.00
46724;BME280;32463;48.298;11.620;2023-02-19T02:13:07;96633.69;;;9.98;100.00
46724;BME280;32463;48.298;11.620;2023-02-19T02:15:43;96641.19;;;10.01;100.00
46724;BME280;32463;48.298;11.620;2023-02-19T02:21:29;96631.53;;;9.94;100.00
46724;BME280;32463;48.298;11.620;2023-02-19T02:24:18;96608.38;;;9.92;100.00
46724;BME280;32463;48.298;11.620;2023-02-19T02:30:06;96603.72;;;9.96;100.00
46724;BME280;32463;48.298;11.620;2023-02-19T02:32:15;96604.84;;;9.93;100.00
46724;BME280;32463;48.298;11.620;2023-02-19T02:34:51;96603.72;;;9.96;100.00
46724;BME280;32463;48.298;11.620;2023-02-19T02:37:24;96611.94;;;9.91;100.00
46724;BME280;32463;48.298;11.620;2023-02-19T02:39:52;96606.59;;;9.93;100.00
46724;BME280;32463;48.298;11.620;2023-02-19T02:42:19;96600.25;;;9.87;100.00
46724;BME280;32463;48.298;11.620;2023-02-19T02:44:57;96602.44;;;9.82;100.00
46724;BME280;32463;48.298;11.620;2023-02-19T02:47:55;96581.97;;;9.71;100.00
46724;BME280;32463;48.298;11.620;2023-02-19T02:50:26;96590.03;;;9.68;100.00
46724;BME280;32463;48.298;11.620;2023-02-19T02:52:59;96586.47;;;9.69;100.00
46724;BME280;32463;48.298;11.620;2023-02-19T02:55:48;96571.75;;;9.69;100.00
46724;BME280;32463;48.298;11.620;2023-02-19T02:58:16;96579.38;;;9.71;100.00
46724;BME280;32463;48.298;11.620;2023-02-19T03:00:47;96579.09;;;9.74;100.00
46724;BME280;32463;48.298;11.620;2023-02-19T03:03:34;96570.13;;;9.68;100.00
46724;BME280;32463;48.298;11.620;2023-02-19T03:06:05;96568.22;;;9.70;100.00
46724;BME280;32463;48.298;11.620;2023-02-19T03:08:37;96559.25;;;9.65;100.00
46724;BME280;32463;48.298;11.620;2023-02-19T03:11:06;96557.91;;;9.61;100.00
46724;BME280;32463;48.298;11.620;2023-02-19T03:13:57;96565.31;;;9.56;100.00
46724;BME280;32463;48.298;11.620;2023-02-19T03:16:44;96567.50;;;9.51;100.00
46724;BME280;32463;48.298;11.620;2023-02-19T03:19:34;96563.63;;;9.47;100.00
46724;BME280;32463;48.298;11.620;2023-02-19T03:22:11;96557.63;;;9.46;100.00
46724;BME280;32463;48.298;11.620;2023-02-19T03:25:13;96557.09;;;9.42;100.00
46724;BME280;32463;48.298;11.620;2023-02-19T03:28:01;96559.59;;;9.34;100.00
46724;BME280;32463;48.298;11.620;2023-02-19T03:30:34;96546.94;;;9.31;100.00
46724;BME280;32463;48.298;11.620;2023-02-19T03:33:07;96579.91;;;9.29;100.00
46724;BME280;32463;48.298;11.620;2023-02-19T03:35:40;96567.53;;;9.23;100.00
46724;BME280;32463;48.298;11.620;2023-02-19T03:40:51;96565.59;;;9.07;100.00
46724;BME280;32463;48.298;11.620;2023-02-19T03:49:04;96558.81;;;8.97;100.00
46724;BME280;32463;48.298;11.620;2023-02-19T03:51:49;96554.50;;;8.88;100.00
46724;BME280;32463;48.298;11.620;2023-02-19T03:54:21;96568.69;;;8.84;100.00
46724;BME280;32463;48.298;11.620;2023-02-19T03:56:53;96565.72;;;8.78;100.00
46724;BME280;32463;48.298;11.620;2023-02-19T03:59:40;96571.84;;;8.77;100.00
46724;BME280;32463;48.298;11.620;2023-02-19T04:02:09;96570.06;;;8.78;100.00
46724;BME280;32463;48.298;11.620;2023-02-19T04:04:40;96557.84;;;8.70;100.00
46724;BME280;32463;48.298;11.620;2023-02-19T04:07:09;96557.03;;;8.70;100.00
46724;BME280;32463;48.298;11.620;2023-02-19T04:09:39;96559.19;;;8.74;100.00
46724;BME280;32463;48.298;11.620;2023-02-19T04:12:08;96554.31;;;8.71;100.00
46724;BME280;32463;48.298;11.620;2023-02-19T04:14:56;96559.09;;;8.66;100.00
46724;BME280;32463;48.298;11.620;2023-02-19T04:17:33;96559.78;;;8.59;100.00
46724;BME280;32463;48.298;11.620;2023-02-19T04:20:04;96570.94;;;8.59;100.00
46724;BME280;32463;48.298;11.620;2023-02-19T04:22:32;96563.03;;;8.61;100.00
46724;BME280;32463;48.298;11.620;2023-02-19T04:25:01;96564.81;;;8.60;100.00
46724;BME280;32463;48.298;11.620;2023-02-19T04:27:28;96557.34;;;8.57;100.00
46724;BME280;32463;48.298;11.620;2023-02-19T04:29:55;96559.28;;;8.55;100.00
46724;BME280;32463;48.298;11.620;2023-02-19T04:32:21;96556.81;;;8.54;100.00
46724;BME280;32463;48.298;11.620;2023-02-19T04:34:48;96557.63;;;8.54;100.00
46724;BME280;32463;48.298;11.620;2023-02-19T04:37:14;96570.69;;;8.53;100.00
46724;BME280;32463;48.298;11.620;2023-02-19T04:39:40;96569.88;;;8.52;100.00
46724;BME280;32463;48.298;11.620;2023-02-19T04:42:09;96586.63;;;8.48;100.00
46724;BME280;32463;48.298;11.620;2023-02-19T04:44:35;96580.91;;;8.44;100.00
46724;BME280;32463;48.298;11.620;2023-02-19T04:47:02;96585.94;;;8.46;100.00
46724;BME280;32463;48.298;11.620;2023-02-19T04:49:28;96573.41;;;8.51;100.00
46724;BME280;32463;48.298;11.620;2023-02-19T04:51:55;96572.06;;;8.47;100.00
46724;BME280;32463;48.298;11.620;2023-02-19T04:54:21;96578.88;;;8.48;100.00
46724;BME280;32463;48.298;11.620;2023-02-19T04:56:47;96589.59;;;8.43;100.00
46724;BME280;32463;48.298;11.620;2023-02-19T04:59:15;96584.31;;;8.45;100.00
46724;BME280;32463;48.298;11.620;2023-02-19T05:01:42;96587.03;;;8.43;100.00
46724;BME280;32463;48.298;11.620;2023-02-19T05:04:08;96585.41;;;8.42;100.00
46724;BME280;32463;48.298;11.620;2023-02-19T05:06:35;96585.66;;;8.49;100.00
46724;BME280;32463;48.298;11.620;2023-02-19T05:09:01;96587.72;;;8.46;100.00
46724;BME280;32463;48.298;11.620;2023-02-19T05:11:28;96577.09;;;8.39;100.00
46724;BME280;32463;48.298;11.620;2023-02-19T05:13:55;96580.91;;;8.44;100.00
46724;BME280;32463;48.298;11.620;2023-02-19T05:16:22;96584.31;;;8.45;100.00
46724;BME280;32463;48.298;11.620;2023-02-19T05:18:49;96586.22;;;8.43;100.00
46724;BME280;32463;48.298;11.620;2023-02-19T05:21:17;96593.97;;;8.43;100.00
46724;BME280;32463;48.298;11.620;2023-02-19T05:23:44;96591.09;;;8.46;100.00
46724;BME280;32463;48.298;11.620;2023-02-19T05:26:13;96598.44;;;8.41;100.00
46724;BME280;32463;48.298;11.620;2023-02-19T05:28:42;96606.34;;;8.39;100.00
46724;BME280;32463;48.298;11.620;2023-02-19T05:31:09;96602.00;;;8.40;100.00
46724;BME280;32463;48.298;11.620;2023-02-19T05:33:36;96603.88;;;8.38;100.00
46724;BME280;32463;48.298;11.620;2023-02-19T05:36:05;96599.81;;;8.35;100.00
46724;BME280;32463;48.298;11.620;2023-02-19T05:38:32;96603.47;;;8.33;100.00
46724;BME280;32463;48.298;11.620;2023-02-19T05:41:20;96608.38;;;8.36;100.00
46724;BME280;32463;48.298;11.620;2023-02-19T05:43:48;96598.88;;;8.36;100.00
46724;BME280;32463;48.298;11.620;2023-02-19T05:46:17;96611.63;;;8.38;100.00
46724;BME280;32463;48.298;11.620;2023-02-19T05:48:46;96619.53;;;8.36;100.00
46724;BME280;32463;48.298;11.620;2023-02-19T05:51:16;96614.50;;;8.35;100.00
46724;BME280;32463;48.298;11.620;2023-02-19T05:53:44;96613.81;;;8.33;100.00
46724;BME280;32463;48.298;11.620;2023-02-19T05:58:49;96631.34;;;8.39;100.00
46724;BME280;32463;48.298;11.620;2023-02-19T06:01:16;96605.13;;;8.34;100.00
46724;BME280;32463;48.298;11.620;2023-02-19T06:03:43;96611.78;;;8.36;100.00
46724;BME280;32463;48.298;11.620;2023-02-19T06:06:14;96612.59;;;8.37;100.00
46724;BME280;32463;48.298;11.620;2023-02-19T06:08:41;96618.03;;;8.34;100.00
46724;BME280;32463;48.298;11.620;2023-02-19T06:11:08;96624.84;;;8.35;100.00
46724;BME280;32463;48.298;11.620;2023-02-19T06:13:34;96621.28;;;8.36;100.00
46724;BME280;32463;48.298;11.620;2023-02-19T06:16:05;96617.75;;;8.37;100.00
46724;BME280;32463;48.298;11.620;2023-02-19T06:18:32;96631.91;;;8.42;100.00
46724;BME280;32463;48.298;11.620;2023-02-19T06:21:00;96629.44;;;8.41;100.00
46724;BME280;32463;48.298;11.620;2023-02-19T06:23:28;96632.03;;;8.41;100.00
46724;BME280;32463;48.298;11.620;2023-02-19T06:26:01;96639.25;;;8.37;100.00
46724;BME280;32463;48.298;11.620;2023-02-19T06:28:29;96632.56;;;8.35;100.00
46724;BME280;32463;48.298;11.620;2023-02-19T06:30:57;96647.81;;;8.38;100.00
46724;BME280;32463;48.298;11.620;2023-02-19T06:33:25;96646.19;;;8.37;100.00
46724;BME280;32463;48.298;11.620;2023-02-19T06:35:52;96656.50;;;8.37;100.00
46724;BME280;32463;48.298;11.620;2023-02-19T06:38:20;96655.56;;;8.38;100.00
46724;BME280;32463;48.298;11.620;2023-02-19T06:40:47;96655.56;;;8.38;100.00
46724;BME280;32463;48.298;11.620;2023-02-19T06:43:13;96663.03;;;8.41;100.00
46724;BME280;32463;48.298;11.620;2023-02-19T06:45:39;96661.81;;;8.45;100.00
46724;BME280;32463;48.298;11.620;2023-02-19T06:48:06;96673.78;;;8.46;100.00
46724;BME280;32463;48.298;11.620;2023-02-19T06:50:32;96674.19;;;8.51;100.00
46724;BME280;32463;48.298;11.620;2023-02-19T06:52:59;96686.16;;;8.52;100.00
46724;BME280;32463;48.298;11.620;2023-02-19T06:55:26;96681.94;;;8.51;100.00
46724;BME280;32463;48.298;11.620;2023-02-19T06:57:53;96685.19;;;8.53;100.00
46724;BME280;32463;48.298;11.620;2023-02-19T07:00:22;96690.06;;;8.56;100.00
46724;BME280;32463;48.298;11.620;2023-02-19T07:02:48;96690.06;;;8.56;100.00
46724;BME280;32463;48.298;11.620;2023-02-19T07:05:20;96688.47;;;8.55;100.00
46724;BME280;32463;48.298;11.620;2023-02-19T07:07:47;96697.19;;;8.54;100.00
46724;BME280;32463;48.298;11.620;2023-02-19T07:10:15;96711.03;;;8.53;100.00
46724;BME280;32463;48.298;11.620;2023-02-19T07:12:41;96721.91;;;8.47;100.00
46724;BME280;32463;48.298;11.620;2023-02-19T07:15:08;96722.19;;;8.44;100.00
46724;BME280;32463;48.298;11.620;2023-02-19T07:17:34;96719.75;;;8.42;100.00
46724;BME280;32463;48.298;11.620;2023-02-19T07:20:01;96725.13;;;8.20;100.00
46724;BME280;32463;48.298;11.620;2023-02-19T07:22:27;96739.53;;;8.13;100.00
46724;BME280;32463;48.298;11.620;2023-02-19T07:24:54;96727.81;;;7.99;100.00
46724;BME280;32463;48.298;11.620;2023-02-19T07:27:20;96748.72;;;7.96;100.00
46724;BME280;32463;48.298;11.620;2023-02-19T07:29:47;96744.91;;;7.91;100.00
46724;BME280;32463;48.298;11.620;2023-02-19T07:32:13;96751.72;;;7.92;100.00
46724;BME280;32463;48.298;11.620;2023-02-19T07:34:39;96757.28;;;7.87;100.00
46724;BME280;32463;48.298;11.620;2023-02-19T07:37:07;96766.38;;;7.91;100.00
46724;BME280;32463;48.298;11.620;2023-02-19T07:39:33;96763.91;;;7.80;100.00
46724;BME280;32463;48.298;11.620;2023-02-19T07:42:01;96764.41;;;7.74;100.00
46724;BME280;32463;48.298;11.620;2023-02-19T07:44:27;96768.44;;;7.67;100.00
46724;BME280;32463;48.298;11.620;2023-02-19T07:46:53;96785.16;;;7.63;100.00
46724;BME280;32463;48.298;11.620;2023-02-19T07:49:22;96784.16;;;7.54;100.00
46724;BME280;32463;48.298;11.620;2023-02-19T07:51:48;96786.06;;;7.52;100.00
46724;BME280;32463;48.298;11.620;2023-02-19T07:54:15;96790.84;;;7.57;100.00
46724;BME280;32463;48.298;11.620;2023-02-19T07:56:41;96788.97;;;7.68;100.00
46724;BME280;32463;48.298;11.620;2023-02-19T07:59:08;96793.63;;;7.74;100.00
46724;BME280;32463;48.298;11.620;2023-02-19T08:01:34;96797.03;;;7.75;100.00
46724;BME280;32463;48.298;11.620;2023-02-19T08:04:18;96803.03;;;7.85;100.00
46724;BME280;32463;48.298;11.620;2023-02-19T08:06:45;96792.75;;;7.95;100.00
46724;BME280;32463;48.298;11.620;2023-02-19T08:09:11;96794.16;;;8.08;100.00
46724;BME280;32463;48.298;11.620;2023-02-19T08:11:38;96799.34;;;8.28;100.00
46724;BME280;32463;48.298;11.620;2023-02-19T08:14:25;96794.75;;;8.22;100.00
46724;BME280;32463;48.298;11.620;2023-02-19T08:16:52;96808.84;;;8.18;100.00
46724;BME280;32463;48.298;11.620;2023-02-19T08:19:19;96816.19;;;8.13;100.00
46724;BME280;32463;48.298;11.620;2023-02-19T08:21:45;96801.53;;;8.23;100.00
46724;BME280;32463;48.298;11.620;2023-02-19T08:24:12;96822.41;;;8.40;100.00
46724;BME280;32463;48.298;11.620;2023-02-19T08:26:38;96814.84;;;8.28;100.00
46724;BME280;32463;48.298;11.620;2023-02-19T08:29:05;96822.69;;;8.47;100.00
46724;BME280;32463;48.298;11.620;2023-02-19T08:31:32;96824.56;;;8.35;100.00
46724;BME280;32463;48.298;11.620;2023-02-19T08:33:59;96817.66;;;8.46;100.00
46724;BME280;32463;48.298;11.620;2023-02-19T08:36:25;96825.66;;;8.42;100.00
46724;BME280;32463;48.298;11.620;2023-02-19T08:38:52;96831.28;;;8.76;100.00
46724;BME280;32463;48.298;11.620;2023-02-19T08:41:19;96814.13;;;8.95;100.00
46724;BME280;32463;48.298;11.620;2023-02-19T08:43:45;96822.81;;;9.32;100.00
46724;BME280;32463;48.298;11.620;2023-02-19T08:46:12;96827.72;;;9.45;100.00
46724;BME280;32463;48.298;11.620;2023-02-19T08:48:39;96831.94;;;9.83;100.00
46724;BME280;32463;48.298;11.620;2023-02-19T08:51:08;96836.56;;;9.89;100.00
46724;BME280;32463;48.298;11.620;2023-02-19T08:53:36;96846.38;;;9.95;100.00
46724;BME280;32463;48.298;11.620;2023-02-19T08:56:08;96858.22;;;9.22;100.00
46724;BME280;32463;48.298;11.620;2023-02-19T08:58:35;96841.09;;;9.11;100.00
46724;BME280;32463;48.298;11.620;2023-02-19T09:01:07;96851.91;;;8.38;100.00
46724;BME280;32463;48.298;11.620;2023-02-19T09:03:33;96845.03;;;8.27;100.00
46724;BME280;32463;48.298;11.620;2023-02-19T09:06:00;96841.50;;;7.88;100.00
46724;BME280;32463;48.298;11.620;2023-02-19T09:08:26;96850.44;;;8.15;100.00
46724;BME280;32463;48.298;11.620;2023-02-19T09:11:01;96851.22;;;8.05;100.00
46724;BME280;32463;48.298;11.620;2023-02-19T09:13:27;96845.72;;;8.20;100.00
46724;BME280;32463;48.298;11.620;2023-02-19T09:15:55;96848.28;;;8.20;100.00
46724;BME280;32463;48.298;11.620;2023-02-19T09:18:22;96850.69;;;8.11;100.00
46724;BME280;32463;48.298;11.620;2023-02-19T09:20:49;96856.53;;;8.44;100.00
46724;BME280;32463;48.298;11.620;2023-02-19T09:23:16;96861.16;;;8.40;100.00
46724;BME280;32463;48.298;11.620;2023-02-19T09:25:42;96854.72;;;8.35;100.00
46724;BME280;32463;48.298;11.620;2023-02-19T09:28:09;96848.38;;;8.58;100.00
46724;BME280;32463;48.298;11.620;2023-02-19T09:30:36;96864.22;;;8.74;100.00
46724;BME280;32463;48.298;11.620;2023-02-19T09:33:04;96867.06;;;8.91;100.00
46724;BME280;32463;48.298;11.620;2023-02-19T09:35:30;96850.34;;;8.95;100.00
46724;BME280;32463;48.298;11.620;2023-02-19T09:37:58;96848.44;;;8.77;100.00
46724;BME280;32463;48.298;11.620;2023-02-19T09:40:26;96857.44;;;9.02;100.00
46724;BME280;32463;48.298;11.620;2023-02-19T09:42:52;96856.84;;;9.18;100.00
46724;BME280;32463;48.298;11.620;2023-02-19T09:45:22;96855.72;;;9.59;100.00
46724;BME280;32463;48.298;11.620;2023-02-19T09:47:54;96869.00;;;9.93;100.00
46724;BME280;32463;48.298;11.620;2023-02-19T09:50:31;96864.88;;;10.00;100.00
46724;BME280;32463;48.298;11.620;2023-02-19T09:53:02;96876.25;;;9.80;100.00
46724;BME280;32463;48.298;11.620;2023-02-19T09:55:34;96873.97;;;9.58;100.00
46724;BME280;32463;48.298;11.620;2023-02-19T09:58:29;96874.56;;;9.23;100.00
46724;BME280;32463;48.298;11.620;2023-02-19T10:01:01;96877.00;;;9.24;100.00
46724;BME280;32463;48.298;11.620;2023-02-19T10:03:31;96873.22;;;9.38;100.00
46724;BME280;32463;48.298;11.620;2023-02-19T10:06:04;96851.69;;;9.37;100.00
46724;BME280;32463;48.298;11.620;2023-02-19T10:08:33;96851.03;;;9.82;100.00
46724;BME280;32463;48.298;11.620;2023-02-19T10:11:03;96879.56;;;10.09;100.00
46724;BME280;32463;48.298;11.620;2023-02-19T10:13:34;96876.59;;;10.04;100.00
46724;BME280;32463;48.298;11.620;2023-02-19T10:16:03;96877.97;;;9.99;100.00
46724;BME280;32463;48.298;11.620;2023-02-19T10:18:37;96884.66;;;10.01;100.00
46724;BME280;32463;48.298;11.620;2023-02-19T10:21:28;96882.06;;;10.01;100.00
46724;BME280;32463;48.298;11.620;2023-02-19T10:23:59;96879.72;;;10.45;100.00
46724;BME280;32463;48.298;11.620;2023-02-19T10:26:29;96887.97;;;11.65;99.98
46724;BME280;32463;48.298;11.620;2023-02-19T10:29:00;96882.00;;;12.50;83.86
46724;BME280;32463;48.298;11.620;2023-02-19T10:31:27;96891.38;;;12.43;73.41
46724;BME280;32463;48.298;11.620;2023-02-19T10:33:58;96876.81;;;11.46;80.18
46724;BME280;32463;48.298;11.620;2023-02-19T10:36:35;96903.38;;;10.87;84.68
46724;BME280;32463;48.298;11.620;2023-02-19T10:39:21;96897.66;;;10.56;86.75
46724;BME280;32463;48.298;11.620;2023-02-19T10:41:51;96901.69;;;10.41;85.60
46724;BME280;32463;48.298;11.620;2023-02-19T10:44:24;96902.47;;;10.24;90.80
46724;BME280;32463;48.298;11.620;2023-02-19T10:46:54;96900.22;;;10.38;89.41
46724;BME280;32463;48.298;11.620;2023-02-19T10:49:23;96899.59;;;10.54;91.15
46724;BME280;32463;48.298;11.620;2023-02-19T10:51:53;96897.97;;;10.53;90.43
46724;BME280;32463;48.298;11.620;2023-02-19T10:54:33;96897.78;;;10.37;92.14
46724;BME280;32463;48.298;11.620;2023-02-19T10:57:29;96899.75;;;10.70;89.15
46724;BME280;32463;48.298;11.620;2023-02-19T11:00:18;96898.56;;;11.10;84.54
46724;BME280;32463;48.298;11.620;2023-02-19T11:02:47;96884.84;;;11.00;83.02
46724;BME280;32463;48.298;11.620;2023-02-19T11:05:17;96887.31;;;10.56;87.00
46724;BME280;32463;48.298;11.620;2023-02-19T11:07:54;96890.09;;;11.08;84.56
46724;BME280;32463;48.298;11.620;2023-02-19T11:10:40;96859.91;;;11.68;77.43
46724;BME280;32463;48.298;11.620;2023-02-19T11:13:13;96872.41;;;12.51;69.73
46724;BME280;32463;48.298;11.620;2023-02-19T11:15:42;96870.72;;;13.00;65.45
46724;BME280;32463;48.298;11.620;2023-02-19T11:20:56;96856.66;;;12.52;65.75
46724;BME280;32463;48.298;11.620;2023-02-19T11:25:56;96865.56;;;13.73;62.71
46724;BME280;32463;48.298;11.620;2023-02-19T11:28:29;96863.91;;;13.15;66.02
46724;BME280;32463;48.298;11.620;2023-02-19T11:33:52;96863.22;;;12.89;68.30
46724;BME280;32463;48.298;11.620;2023-02-19T11:36:24;96868.13;;;12.41;72.40
46724;BME280;32463;48.298;11.620;2023-02-19T11:38:52;96868.53;;;12.21;73.67
46724;BME280;32463;48.298;11.620;2023-02-19T11:44:15;96887.66;;;12.11;78.90
46724;BME280;32463;48.298;11.620;2023-02-19T11:49:20;96901.59;;;11.05;96.64
46724;BME280;32463;48.298;11.620;2023-02-19T11:54:30;96895.50;;;11.32;97.16
46724;BME280;32463;48.298;11.620;2023-02-19T11:57:19;96893.72;;;10.79;98.94
46724;BME280;32463;48.298;11.620;2023-02-19T12:02:41;96880.28;;;10.66;89.27
46724;BME280;32463;48.298;11.620;2023-02-19T12:08:16;96869.06;;;11.29;86.88
46724;BME280;32463;48.298;11.620;2023-02-19T12:11:10;96868.66;;;11.06;86.14
46724;BME280;32463;48.298;11.620;2023-02-19T12:16:20;96875.94;;;11.64;85.01
46724;BME280;32463;48.298;11.620;2023-02-19T12:19:05;96866.13;;;11.75;83.47
46724;BME280;32463;48.298;11.620;2023-02-19T12:33:08;96913.06;;;10.30;96.14
46724;BME280;32463;48.298;11.620;2023-02-19T12:38:46;96909.81;;;10.19;97.58
46724;BME280;32463;48.298;11.620;2023-02-19T12:41:28;96920.16;;;10.19;97.84
46724;BME280;32463;48.298;11.620;2023-02-19T12:44:18;96929.59;;;10.20;96.78
46724;BME280;32463;48.298;11.620;2023-02-19T12:46:54;96928.56;;;9.93;89.18
46724;BME280;32463;48.298;11.620;2023-02-19T12:49:39;96924.63;;;9.89;87.94
46724;BME280;32463;48.298;11.620;2023-02-19T12:52:24;96919.72;;;9.86;87.49
46724;BME280;32463;48.298;11.620;2023-02-19T12:54:53;96912.59;;;9.98;87.62
46724;BME280;32463;48.298;11.620;2023-02-19T12:57:26;96902.25;;;9.88;84.15
46724;BME280;32463;48.298;11.620;2023-02-19T13:00:30;96910.94;;;10.06;83.45
46724;BME280;32463;48.298;11.620;2023-02-19T13:02:52;96917.16;;;10.33;79.09
46724;BME280;32463;48.298;11.620;2023-02-19T13:05:31;96927.56;;;11.23;72.16
46724;BME280;32463;48.298;11.620;2023-02-19T13:08:29;96921.25;;;11.43;70.02
46724;BME280;32463;48.298;11.620;2023-02-19T13:11:13;96923.72;;;11.27;69.99
46724;BME280;32463;48.298;11.620;2023-02-19T13:16:18;96917.31;;;11.39;70.25
46724;BME280;32463;48.298;11.620;2023-02-19T13:18:52;96915.53;;;11.58;71.24
46724;BME280;32463;48.298;11.620;2023-02-19T13:21:21;96906.94;;;11.39;71.32
46724;BME280;32463;48.298;11.620;2023-02-19T13:24:10;96927.69;;;11.39;73.21
46724;BME280;32463;48.298;11.620;2023-02-19T13:32:24;96914.44;;;11.25;74.84
46724;BME280;32463;48.298;11.620;2023-02-19T13:37:46;96909.47;;;10.96;78.71
46724;BME280;32463;48.298;11.620;2023-02-19T13:40:32;96907.06;;;11.02;78.38
46724;BME280;32463;48.298;11.620;2023-02-19T13:43:02;96906.50;;;10.36;84.04
46724;BME280;32463;48.298;11.620;2023-02-19T13:45:37;96919.50;;;10.17;88.95
46724;BME280;32463;48.298;11.620;2023-02-19T13:50:40;96904.13;;;10.05;91.03
46724;BME280;32463;48.298;11.620;2023-02-19T13:59:12;96901.34;;;10.26;87.90
46724;BME280;32463;48.298;11.620;2023-02-19T14:04:55;96899.03;;;10.33;87.09
46724;BME280;32463;48.298;11.620;2023-02-19T14:09:56;96897.66;;;10.56;85.54
46724;BME280;32463;48.298;11.620;2023-02-19T14:12:34;96908.44;;;10.61;84.19
46724;BME280;32463;48.298;11.620;2023-02-19T14:15:40;96913.09;;;10.58;85.53
46724;BME280;32463;48.298;11.620;2023-02-19T14:18:39;96905.44;;;10.29;88.33
46724;BME280;32463;48.298;11.620;2023-02-19T14:21:15;96911.47;;;10.20;87.74
46724;BME280;32463;48.298;11.620;2023-02-19T14:23:42;96914.75;;;10.49;85.07
46724;BME280;32463;48.298;11.620;2023-02-19T14:26:10;96916.47;;;10.31;87.44
46724;BME280;32463;48.298;11.620;2023-02-19T14:28:42;96910.81;;;10.08;87.75
46724;BME280;32463;48.298;11.620;2023-02-19T14:31:27;96913.34;;;10.18;86.45
46724;BME280;32463;48.298;11.620;2023-02-19T14:33:58;96911.72;;;10.17;86.72
46724;BME280;32463;48.298;11.620;2023-02-19T14:36:55;96911.47;;;10.10;88.08